Time;durP1;ratioP1;P1;durP2;ratioP2;P2;SDS_P1;SDS_P2;PMS_P1;PMS_P2;Temp;Humidity;BMP_temperature;BMP_pressure;BME280_temperature;BME280_humidity;BME280_pressure;Samples;Min_cycle;Max_cycle;Signal;HPM_P1;HPM_P2
2022/06/09 00:00:53;;;;;;;;;;;;;;;19.85;54.25;99733.38;5020361;27;98030;-67
2022/06/09 00:03:22;;;;;;;;;;;;;;;19.82;54.25;99743.06;5020352;27;97543;-62
2022/06/09 00:05:48;;;;;;;;;;;;;;;19.83;54.23;99730.97;5023089;27;98628;-67
2022/06/09 00:08:14;;;;;;;;;;;;;;;19.83;54.09;99733.69;5016731;27;98612;-62
2022/06/09 00:10:41;;;;;;;;;;;;;;;19.85;54.13;99736.91;5039407;27;125041;-62
2022/06/09 00:13:07;;;;;;;;;;;;;;;19.85;54.04;99731.44;5026390;27;97518;-69
2022/06/09 00:15:33;;;;;;;;;;;;;;;19.87;54.15;99733.81;5021047;28;97899;-62
2022/06/09 00:17:59;;;;;;;;;;;;;;;19.87;54.06;99744.75;5029677;27;98625;-61
2022/06/09 00:20:25;;;;;;;;;;;;;;;19.87;54.05;99739.28;5040932;27;128250;-67
2022/06/09 00:22:51;;;;;;;;;;;;;;;19.86;54.12;99749.41;5039235;27;108665;-61
2022/06/09 00:25:18;;;;;;;;;;;;;;;19.84;53.98;99745.44;5040318;27;108326;-67
2022/06/09 00:27:43;;;;;;;;;;;;;;;19.84;54.12;99748.16;5021130;27;98981;-61
2022/06/09 00:30:10;;;;;;;;;;;;;;;19.83;54.09;99743.84;5020280;28;110018;-62
2022/06/09 00:32:36;;;;;;;;;;;;;;;19.82;54.19;99745.00;5031791;27;97450;-67
2022/06/09 00:35:02;;;;;;;;;;;;;;;19.80;54.21;99750.78;5032726;27;98059;-61
2022/06/09 00:37:28;;;;;;;;;;;;;;;19.79;54.12;99748.41;5019926;28;120767;-61
2022/06/09 00:39:55;;;;;;;;;;;;;;;19.78;54.22;99749.56;5033992;27;126267;-67
2022/06/09 00:42:21;;;;;;;;;;;;;;;19.77;54.16;99742.50;5034980;27;98112;-67
2022/06/09 00:44:47;;;;;;;;;;;;;;;19.75;54.31;99745.56;5040055;27;124367;-61
2022/06/09 00:47:27;;;;;;;;;;;;;;;19.73;54.31;99745.16;5038313;27;127360;-61
2022/06/09 00:50:05;;;;;;;;;;;;;;;19.72;54.37;99745.47;5039577;27;106341;-67
2022/06/09 00:52:36;;;;;;;;;;;;;;;19.70;54.33;99743.09;5013569;27;97529;-67
2022/06/09 00:55:05;;;;;;;;;;;;;;;19.70;54.34;99742.31;5022757;27;97595;-67
2022/06/09 00:57:37;;;;;;;;;;;;;;;19.69;54.28;99746.16;5033756;27;125722;-67
2022/06/09 01:00:14;;;;;;;;;;;;;;;19.65;54.32;99757.00;5002510;28;106017;-61
2022/06/09 01:02:41;;;;;;;;;;;;;;;19.65;54.13;99757.00;5012111;27;97316;-67
2022/06/09 01:05:07;;;;;;;;;;;;;;;19.62;54.34;99765.88;5036703;27;126675;-62
2022/06/09 01:07:36;;;;;;;;;;;;;;;19.57;54.28;99763.34;5019808;27;127239;-67
2022/06/09 01:10:03;;;;;;;;;;;;;;;19.54;54.52;99758.59;5002532;28;98653;-62
2022/06/09 01:12:50;;;;;;;;;;;;;;;19.49;54.44;99756.91;5025887;27;111201;-68
2022/06/09 01:15:19;;;;;;;;;;;;;;;19.45;54.43;99771.56;5039564;27;97495;-67
2022/06/09 01:18:03;;;;;;;;;;;;;;;19.41;54.45;99776.91;5028696;27;124924;-61
2022/06/09 01:20:34;;;;;;;;;;;;;;;19.40;54.52;99774.53;5018003;28;110066;-67
2022/06/09 01:23:33;;;;;;;;;;;;;;;19.34;54.38;99777.50;5022590;27;103190;-69
2022/06/09 01:26:11;;;;;;;;;;;;;;;19.30;54.73;99767.63;5003569;28;126826;-68
2022/06/09 01:28:49;;;;;;;;;;;;;;;19.23;54.66;99775.56;5036069;27;97951;-61
2022/06/09 01:31:36;;;;;;;;;;;;;;;19.17;54.68;99779.66;5038022;27;98031;-61
2022/06/09 01:34:06;;;;;;;;;;;;;;;19.09;54.87;99776.69;5018329;27;115031;-68
2022/06/09 01:36:36;;;;;;;;;;;;;;;19.03;54.95;99775.34;5017892;28;126210;-62
2022/06/09 01:39:03;;;;;;;;;;;;;;;18.96;55.06;99771.56;5020208;27;98537;-68
2022/06/09 01:41:29;;;;;;;;;;;;;;;18.86;55.89;99773.63;5033780;27;97960;-68
2022/06/09 01:43:55;;;;;;;;;;;;;;;18.81;55.43;99773.03;5036254;27;97361;-68
2022/06/09 01:46:24;;;;;;;;;;;;;;;18.75;55.32;99774.41;5018749;28;103041;-67
2022/06/09 01:48:51;;;;;;;;;;;;;;;18.71;55.20;99771.53;5033623;27;104876;-62
2022/06/09 01:51:17;;;;;;;;;;;;;;;18.67;55.11;99767.88;5015675;28;98196;-68
2022/06/09 01:54:04;;;;;;;;;;;;;;;18.63;55.30;99767.75;5005094;28;116505;-68
2022/06/09 01:56:57;;;;;;;;;;;;;;;18.60;55.07;99775.81;5019264;28;97824;-62
2022/06/09 01:59:28;;;;;;;;;;;;;;;18.54;55.29;99774.41;5036845;27;119345;-61
2022/06/09 02:02:35;;;;;;;;;;;;;;;18.51;55.29;99777.81;5036878;27;98012;-61
2022/06/09 02:05:10;;;;;;;;;;;;;;;18.45;55.34;99769.06;5019080;27;97550;-67
2022/06/09 02:07:37;;;;;;;;;;;;;;;18.43;55.17;99781.44;5000934;28;104093;-67
2022/06/09 02:10:20;;;;;;;;;;;;;;;18.40;55.15;99788.38;4999785;27;97678;-62
2022/06/09 02:12:47;;;;;;;;;;;;;;;18.37;55.29;99786.31;5014070;27;97684;-68
2022/06/09 02:15:15;;;;;;;;;;;;;;;18.34;55.42;99793.22;4998480;28;97342;-61
2022/06/09 02:17:44;;;;;;;;;;;;;;;18.31;55.19;99793.09;5026497;27;119222;-68
2022/06/09 02:20:11;;;;;;;;;;;;;;;18.27;55.43;99801.13;5038017;27;127052;-62
2022/06/09 02:22:37;;;;;;;;;;;;;;;18.25;55.30;99799.91;5032122;27;98286;-61
2022/06/09 02:25:03;;;;;;;;;;;;;;;18.23;55.22;99802.94;5017098;28;116301;-69
2022/06/09 02:27:29;;;;;;;;;;;;;;;18.19;55.34;99804.75;5019547;27;100419;-68
2022/06/09 02:29:55;;;;;;;;;;;;;;;18.18;55.05;99805.88;5020002;27;128126;-61
2022/06/09 02:32:21;;;;;;;;;;;;;;;18.17;55.20;99803.50;5019950;27;126956;-69
2022/06/09 02:34:47;;;;;;;;;;;;;;;18.14;55.31;99807.69;5018002;27;115815;-67
2022/06/09 02:37:13;;;;;;;;;;;;;;;18.11;55.18;99814.59;5018464;28;126761;-68
2022/06/09 02:39:38;;;;;;;;;;;;;;;18.09;55.13;99810.63;5018774;27;109196;-61
2022/06/09 02:42:06;;;;;;;;;;;;;;;18.08;55.19;99812.56;5020060;27;97568;-67
2022/06/09 02:44:32;;;;;;;;;;;;;;;18.09;55.21;99824.25;5018870;27;97384;-68
2022/06/09 02:46:58;;;;;;;;;;;;;;;18.10;55.27;99826.63;5018357;27;121789;-67
2022/06/09 02:49:24;;;;;;;;;;;;;;;18.11;55.16;99828.22;5034804;27;128192;-62
2022/06/09 02:51:50;;;;;;;;;;;;;;;18.13;55.17;99836.09;5024584;27;127290;-62
2022/06/09 02:54:16;;;;;;;;;;;;;;;18.13;55.18;99839.63;5038967;27;116812;-61
2022/06/09 02:56:42;;;;;;;;;;;;;;;18.13;54.99;99847.78;5037717;27;125343;-67
2022/06/09 02:59:09;;;;;;;;;;;;;;;18.15;55.11;99850.97;5020112;27;98613;-67
2022/06/09 03:01:35;;;;;;;;;;;;;;;18.16;55.22;99849.06;5029104;27;98308;-68
2022/06/09 03:04:05;;;;;;;;;;;;;;;18.17;55.00;99856.13;5039126;27;97932;-68
2022/06/09 03:06:31;;;;;;;;;;;;;;;18.18;54.82;99852.25;5024383;27;98114;-61
2022/06/09 03:08:58;;;;;;;;;;;;;;;18.20;54.99;99865.56;5017882;27;126651;-67
2022/06/09 03:11:24;;;;;;;;;;;;;;;18.23;55.00;99864.88;5026726;27;98485;-67
2022/06/09 03:13:50;;;;;;;;;;;;;;;18.24;54.80;99861.84;5021069;27;98244;-62
2022/06/09 03:16:16;;;;;;;;;;;;;;;18.25;54.84;99876.28;5016889;28;127342;-67
2022/06/09 03:18:42;;;;;;;;;;;;;;;18.27;54.78;99872.06;5017157;27;126375;-66
2022/06/09 03:21:09;;;;;;;;;;;;;;;18.25;54.74;99874.34;5025022;27;98249;-61
2022/06/09 03:23:35;;;;;;;;;;;;;;;18.28;54.76;99873.69;5038306;27;102040;-61
2022/06/09 03:26:01;;;;;;;;;;;;;;;18.31;54.55;99878.47;5036627;27;126250;-61
2022/06/09 03:28:27;;;;;;;;;;;;;;;18.31;54.67;99872.19;5037961;27;127296;-67
2022/06/09 03:30:54;;;;;;;;;;;;;;;18.33;54.67;99880.84;5035668;27;125009;-68
2022/06/09 03:33:20;;;;;;;;;;;;;;;18.34;54.48;99883.25;5038736;27;97274;-61
2022/06/09 03:35:46;;;;;;;;;;;;;;;18.34;54.46;99882.44;5036597;27;126463;-68
2022/06/09 03:38:12;;;;;;;;;;;;;;;18.34;54.63;99882.44;5037256;27;126910;-61
2022/06/09 03:40:38;;;;;;;;;;;;;;;18.33;54.66;99886.31;5035057;27;125212;-62
2022/06/09 03:43:04;;;;;;;;;;;;;;;18.33;54.59;99892.56;5017792;27;116985;-61
2022/06/09 03:45:31;;;;;;;;;;;;;;;18.34;54.48;99885.19;5017701;27;97527;-67
2022/06/09 03:47:57;;;;;;;;;;;;;;;18.35;54.52;99894.94;5008912;27;126552;-67
2022/06/09 03:50:24;;;;;;;;;;;;;;;18.36;54.34;99897.38;5037646;27;97565;-67
2022/06/09 03:52:50;;;;;;;;;;;;;;;18.37;54.54;99893.50;5028116;27;97456;-67
2022/06/09 03:55:16;;;;;;;;;;;;;;;18.39;54.34;99895.88;5036568;27;128118;-61
2022/06/09 03:57:42;;;;;;;;;;;;;;;18.43;54.37;99898.75;5037723;27;107845;-62
2022/06/09 04:00:09;;;;;;;;;;;;;;;18.48;54.31;99907.53;5038395;27;97393;-61
2022/06/09 04:02:35;;;;;;;;;;;;;;;18.53;54.20;99903.81;5036524;27;97907;-67
2022/06/09 04:05:01;;;;;;;;;;;;;;;18.60;54.21;99912.25;5036722;27;126827;-67
2022/06/09 04:07:27;;;;;;;;;;;;;;;18.69;53.96;99910.25;5023769;27;98558;-68
2022/06/09 04:09:53;;;;;;;;;;;;;;;18.81;53.99;99917.72;5036940;27;119157;-67
2022/06/09 04:12:19;;;;;;;;;;;;;;;18.92;53.79;99913.44;5023255;27;116318;-61
2022/06/09 04:14:47;;;;;;;;;;;;;;;19.02;53.65;99913.03;5014768;28;126403;-62
2022/06/09 04:17:12;;;;;;;;;;;;;;;19.12;53.44;99920.78;5018783;27;98588;-62
2022/06/09 04:19:39;;;;;;;;;;;;;;;19.24;53.38;99914.53;5016582;28;127190;-62
2022/06/09 04:22:05;;;;;;;;;;;;;;;19.36;53.40;99911.03;5025669;27;112482;-68
2022/06/09 04:24:31;;;;;;;;;;;;;;;19.49;53.14;99911.84;5017346;28;98047;-61
2022/06/09 04:26:57;;;;;;;;;;;;;;;19.66;52.91;99922.63;5018439;27;98427;-62
2022/06/09 04:29:23;;;;;;;;;;;;;;;19.81;52.78;99918.41;5017337;27;97559;-68
2022/06/09 04:31:49;;;;;;;;;;;;;;;19.96;52.61;99917.69;5025583;27;111405;-67
2022/06/09 04:34:15;;;;;;;;;;;;;;;20.11;52.37;99917.00;5016511;27;126785;-61
2022/06/09 04:36:41;;;;;;;;;;;;;;;20.24;51.98;99908.75;5016376;28;128092;-68
2022/06/09 04:39:07;;;;;;;;;;;;;;;20.29;52.11;99906.59;5029814;27;97651;-68
2022/06/09 04:41:33;;;;;;;;;;;;;;;20.37;51.88;99906.81;5020860;27;97520;-67
2022/06/09 04:43:59;;;;;;;;;;;;;;;20.41;51.95;99910.44;5013754;27;127382;-62
2022/06/09 04:46:26;;;;;;;;;;;;;;;20.50;51.79;99911.13;5010595;28;126405;-68
2022/06/09 04:48:52;;;;;;;;;;;;;;;20.56;51.75;99912.50;5020353;27;99096;-67
2022/06/09 04:51:18;;;;;;;;;;;;;;;20.66;51.52;99920.19;5015279;27;116334;-61
2022/06/09 04:53:45;;;;;;;;;;;;;;;20.71;51.41;99928.19;5020077;27;98495;-68
2022/06/09 04:56:11;;;;;;;;;;;;;;;20.77;51.35;99923.25;5017091;27;102219;-67
2022/06/09 04:58:40;;;;;;;;;;;;;;;20.80;51.21;99928.81;5020317;27;127100;-68
2022/06/09 05:01:06;;;;;;;;;;;;;;;20.82;51.30;99932.00;5015252;27;97506;-61
2022/06/09 05:03:33;;;;;;;;;;;;;;;20.83;51.10;99938.28;5016176;27;98683;-68
2022/06/09 05:05:59;;;;;;;;;;;;;;;20.83;51.27;99943.75;5014406;28;104360;-68
2022/06/09 05:08:25;;;;;;;;;;;;;;;20.78;51.29;99944.00;5019609;27;126739;-61
2022/06/09 05:10:51;;;;;;;;;;;;;;;20.73;51.25;99950.50;4106513;27;10000625;-61
2022/06/09 05:13:17;;;;;;;;;;;;;;;20.69;51.19;99949.63;4995057;28;98170;-67
2022/06/09 05:15:53;;;;;;;;;;;;;;;20.66;51.34;99950.31;4996453;28;97813;-62
2022/06/09 05:18:21;;;;;;;;;;;;;;;20.63;51.20;99951.00;4996253;28;120673;-67
2022/06/09 05:20:48;;;;;;;;;;;;;;;20.63;51.21;99958.41;4994604;28;113050;-68
2022/06/09 05:23:14;;;;;;;;;;;;;;;20.57;51.28;99963.34;4994153;28;123421;-68
2022/06/09 05:25:40;;;;;;;;;;;;;;;20.56;51.27;99957.06;4994914;28;97753;-61
2022/06/09 05:28:06;;;;;;;;;;;;;;;20.57;51.32;99969.63;4992756;28;124924;-61
2022/06/09 05:30:32;;;;;;;;;;;;;;;20.55;51.23;99974.66;4991372;28;127125;-61
2022/06/09 05:32:58;;;;;;;;;;;;;;;20.55;51.14;99966.44;4996989;28;126525;-61
2022/06/09 05:35:24;;;;;;;;;;;;;;;20.56;51.20;99968.03;4995636;28;97680;-68
2022/06/09 05:46:04;;;;;;;;;;;;;;;20.64;51.37;99984.66;4998592;28;97850;-69
2022/06/09 05:48:30;;;;;;;;;;;;;;;20.71;51.16;99990.34;4996579;28;98287;-67
2022/06/09 05:50:56;;;;;;;;;;;;;;;20.81;51.10;99990.66;4996298;27;99475;-61
2022/06/09 05:53:22;;;;;;;;;;;;;;;20.96;50.81;99991.06;4993998;28;125710;-61
2022/06/09 05:55:48;;;;;;;;;;;;;;;21.07;50.76;99992.16;4994303;28;98186;-68
2022/06/09 05:58:14;;;;;;;;;;;;;;;21.22;50.39;99993.34;4996261;28;127472;-68
2022/06/09 06:00:45;;;;;;;;;;;;;;;21.35;50.42;99991.38;4993355;28;126196;-61
2022/06/09 06:03:12;;;;;;;;;;;;;;;21.51;50.05;99990.25;4993518;28;98122;-61
2022/06/09 06:08:23;;;;;;;;;;;;;;;22.19;49.33;100008.41;4991187;28;97915;-68
2022/06/09 06:10:48;;;;;;;;;;;;;;;22.32;48.99;100005.53;4992561;28;97987;-67
2022/06/09 06:13:14;;;;;;;;;;;;;;;22.40;49.09;99999.88;4993640;28;126451;-61
2022/06/09 06:15:40;;;;;;;;;;;;;;;22.51;48.72;100006.38;4998390;28;114904;-62
2022/06/09 06:18:06;;;;;;;;;;;;;;;22.74;48.29;100006.50;5003756;28;122163;-68
2022/06/09 06:20:32;;;;;;;;;;;;;;;22.83;48.05;100013.72;4993742;28;118679;-61
2022/06/09 06:22:59;;;;;;;;;;;;;;;22.77;48.12;100018.72;4993062;28;121072;-68
2022/06/09 06:25:25;;;;;;;;;;;;;;;22.69;48.07;100019.72;4994030;28;98140;-61
2022/06/09 06:27:51;;;;;;;;;;;;;;;22.67;48.08;100027.50;4999500;28;97965;-68
2022/06/09 06:30:16;;;;;;;;;;;;;;;22.64;48.25;100026.31;4993017;28;115430;-61
2022/06/09 06:32:42;;;;;;;;;;;;;;;22.62;48.26;100019.56;4993411;28;98837;-68
2022/06/09 06:35:09;;;;;;;;;;;;;;;22.58;48.09;100024.97;4993184;28;112755;-68
2022/06/09 06:37:35;;;;;;;;;;;;;;;22.65;47.86;100029.84;4993704;28;98519;-61
2022/06/09 06:40:00;;;;;;;;;;;;;;;22.79;47.67;100030.13;4992813;28;126868;-61
2022/06/09 06:42:26;;;;;;;;;;;;;;;22.96;47.57;100037.22;4992385;28;126734;-61
2022/06/09 06:44:52;;;;;;;;;;;;;;;23.09;47.32;100043.34;5001304;28;117390;-67
2022/06/09 06:47:18;;;;;;;;;;;;;;;23.22;47.30;100042.03;4993021;28;126188;-61
2022/06/09 06:49:44;;;;;;;;;;;;;;;23.31;47.16;100048.13;4992786;28;127954;-67
2022/06/09 06:52:10;;;;;;;;;;;;;;;23.34;47.23;100041.88;4992058;28;126557;-68
2022/06/09 06:54:36;;;;;;;;;;;;;;;23.39;46.94;100049.84;4995153;28;118326;-61
2022/06/09 06:57:05;;;;;;;;;;;;;;;23.43;46.78;100049.94;4991977;28;127239;-68
2022/06/09 06:59:34;;;;;;;;;;;;;;;23.36;46.76;100053.31;4993959;28;98202;-61
2022/06/09 07:02:00;;;;;;;;;;;;;;;23.28;46.70;100057.88;4995447;28;115968;-61
2022/06/09 07:04:26;;;;;;;;;;;;;;;23.21;46.85;100056.94;4996932;27;97623;-68
2022/06/09 07:06:51;;;;;;;;;;;;;;;23.13;46.95;100057.97;5000745;28;102785;-61
2022/06/09 07:09:17;;;;;;;;;;;;;;;23.07;47.23;100059.38;4993472;28;97678;-66
2022/06/09 07:11:45;;;;;;;;;;;;;;;22.98;47.09;100057.66;4994450;28;127220;-68
2022/06/09 07:14:11;;;;;;;;;;;;;;;22.90;47.43;100064.13;4994609;28;97473;-61
2022/06/09 07:16:37;;;;;;;;;;;;;;;22.82;47.49;100070.63;4994251;28;113791;-68
2022/06/09 07:19:03;;;;;;;;;;;;;;;22.73;47.70;100070.03;4998270;28;100257;-69
2022/06/09 07:21:29;;;;;;;;;;;;;;;22.65;47.67;100071.81;4992203;28;128067;-69
2022/06/09 07:23:55;;;;;;;;;;;;;;;22.59;47.63;100066.97;4999057;28;97951;-68
2022/06/09 07:26:21;;;;;;;;;;;;;;;22.51;47.99;100076.97;4990815;28;129051;-67
2022/06/09 07:28:47;;;;;;;;;;;;;;;22.47;48.13;100073.38;4993414;28;126747;-61
2022/06/09 07:31:13;;;;;;;;;;;;;;;22.46;47.93;100085.50;4997702;28;97743;-62
2022/06/09 07:33:39;;;;;;;;;;;;;;;22.44;47.94;100085.88;4999269;28;119122;-68
2022/06/09 07:36:07;;;;;;;;;;;;;;;22.44;48.02;100093.28;4997959;28;99237;-61
2022/06/09 07:38:33;;;;;;;;;;;;;;;22.40;47.98;100086.91;4994052;28;107457;-68
2022/06/09 07:40:59;;;;;;;;;;;;;;;22.38;48.09;100092.78;4992227;28;98244;-67
2022/06/09 07:43:25;;;;;;;;;;;;;;;22.37;48.09;100090.41;4992220;28;115975;-68
2022/06/09 07:45:51;;;;;;;;;;;;;;;22.34;48.15;100096.59;4992159;28;98632;-62
2022/06/09 07:48:19;;;;;;;;;;;;;;;22.30;48.21;100086.31;4996235;28;127414;-67
2022/06/09 07:50:45;;;;;;;;;;;;;;;22.28;48.21;100088.63;4993310;28;97973;-68
2022/06/09 07:53:11;;;;;;;;;;;;;;;22.27;48.32;100084.28;4992131;28;117494;-69
2022/06/09 07:55:37;;;;;;;;;;;;;;;22.28;48.40;100096.03;4991051;28;125706;-68
2022/06/09 07:58:04;;;;;;;;;;;;;;;22.27;48.48;100091.72;4996280;28;98653;-61
2022/06/09 08:00:30;;;;;;;;;;;;;;;22.25;48.54;100088.53;4998169;28;98164;-62
2022/06/09 08:02:56;;;;;;;;;;;;;;;22.22;48.58;100095.53;4992173;28;117143;-68
2022/06/09 08:05:23;;;;;;;;;;;;;;;22.17;48.52;100104.03;4993749;28;97975;-62
2022/06/09 08:07:49;;;;;;;;;;;;;;;22.13;48.81;100107.81;4993011;28;98094;-62
2022/06/09 08:10:19;;;;;;;;;;;;;;;22.12;48.83;100114.44;4989525;28;126185;-61
2022/06/09 08:12:46;;;;;;;;;;;;;;;22.11;48.76;100116.38;4992825;28;97600;-61
2022/06/09 08:15:14;;;;;;;;;;;;;;;22.10;48.76;100116.75;4992048;28;105694;-68
2022/06/09 08:17:40;;;;;;;;;;;;;;;22.02;48.88;100122.03;4998587;28;98979;-61
2022/06/09 08:20:07;;;;;;;;;;;;;;;21.94;48.89;100127.72;4991474;28;126828;-61
2022/06/09 08:22:33;;;;;;;;;;;;;;;21.91;48.97;100131.94;5001007;28;97480;-68
2022/06/09 08:24:59;;;;;;;;;;;;;;;21.90;49.07;100137.78;4998201;28;108991;-61
2022/06/09 08:27:25;;;;;;;;;;;;;;;21.94;49.08;100134.00;4998541;28;124721;-68
2022/06/09 08:29:51;;;;;;;;;;;;;;;21.98;49.00;100145.06;4994939;28;126423;-61
2022/06/09 08:32:17;;;;;;;;;;;;;;;21.97;49.19;100140.72;4995165;28;97716;-68
2022/06/09 08:34:43;;;;;;;;;;;;;;;21.95;49.39;100137.53;4999784;28;113741;-67
2022/06/09 08:37:08;;;;;;;;;;;;;;;21.91;49.52;100145.66;4994448;28;127500;-67
2022/06/09 08:39:34;;;;;;;;;;;;;;;21.88;49.82;100146.34;5004005;28;127495;-68
2022/06/09 08:42:03;;;;;;;;;;;;;;;21.87;49.76;100149.47;4997034;28;117129;-61
2022/06/09 08:44:45;;;;;;;;;;;;;;;21.82;49.75;100147.78;4995182;28;97755;-61
2022/06/09 08:47:36;;;;;;;;;;;;;;;21.75;49.69;100156.59;4994676;28;98031;-67
2022/06/09 08:50:24;;;;;;;;;;;;;;;21.67;49.98;100167.72;4987988;28;97918;-67
2022/06/09 08:52:52;;;;;;;;;;;;;;;21.60;50.02;100165.56;4994549;28;117739;-61
2022/06/09 08:55:34;;;;;;;;;;;;;;;21.59;49.88;100163.19;4997862;28;98671;-68
2022/06/09 08:58:12;;;;;;;;;;;;;;;21.53;49.96;100174.38;4981507;28;98823;-61
2022/06/09 09:00:41;;;;;;;;;;;;;;;21.45;50.08;100178.06;5001239;28;98598;-61
2022/06/09 09:03:16;;;;;;;;;;;;;;;21.39;50.12;100179.47;4998946;28;97936;-68
2022/06/09 09:05:53;;;;;;;;;;;;;;;21.33;50.29;100186.31;5000714;28;98627;-67
2022/06/09 09:08:18;;;;;;;;;;;;;;;21.29;50.50;100188.13;4976571;28;99792;-68
2022/06/09 09:11:09;;;;;;;;;;;;;;;21.22;50.63;100188.72;4994198;28;110209;-68
2022/06/09 09:13:46;;;;;;;;;;;;;;;21.16;50.75;100201.06;5002271;28;97505;-61
2022/06/09 09:16:18;;;;;;;;;;;;;;;21.09;50.98;100200.84;4993854;28;122815;-67
2022/06/09 09:18:45;;;;;;;;;;;;;;;21.06;50.95;100201.50;4995378;28;97513;-67
2022/06/09 09:21:53;;;;;;;;;;;;;;;21.01;51.18;100199.81;4994495;28;98939;-60
2022/06/09 09:25:27;;;;;;;;;;;;;;;20.94;51.37;100207.81;4957119;28;106842;-68
2022/06/09 09:28:05;;;;;;;;;;;;;;;20.89;51.58;100221.72;4953930;28;97777;-61
2022/06/09 09:31:00;;;;;;;;;;;;;;;20.93;51.74;100221.84;4982409;28;98780;-60
2022/06/09 09:33:27;;;;;;;;;;;;;;;20.93;51.93;100216.38;4993208;28;97930;-68
2022/06/09 09:35:58;;;;;;;;;;;;;;;20.87;52.12;100225.94;4995828;27;117884;-61
2022/06/09 09:38:25;;;;;;;;;;;;;;;20.83;52.21;100221.19;4992386;28;106776;-68
2022/06/09 09:40:57;;;;;;;;;;;;;;;20.81;52.56;100222.66;4976510;28;97894;-67
2022/06/09 09:43:32;;;;;;;;;;;;;;;20.79;52.63;100225.75;4993878;28;110555;-61
2022/06/09 09:45:58;;;;;;;;;;;;;;;20.81;52.65;100222.66;4993747;28;113702;-68
2022/06/09 09:48:24;;;;;;;;;;;;;;;20.81;52.37;100217.97;4981658;28;126850;-68
2022/06/09 09:51:11;;;;;;;;;;;;;;;20.89;52.59;100223.69;4995172;28;102912;-68
2022/06/09 09:53:46;;;;;;;;;;;;;;;20.94;52.71;100226.19;4995700;28;97631;-68
2022/06/09 09:56:18;;;;;;;;;;;;;;;20.95;52.75;100223.13;4996108;28;97349;-68
2022/06/09 09:58:46;;;;;;;;;;;;;;;20.95;52.84;100234.06;4997099;27;98209;-61
2022/06/09 10:01:22;;;;;;;;;;;;;;;20.92;52.88;100229.28;4993676;28;103637;-61
2022/06/09 10:09:42;;;;;;;;;;;;;;;20.79;53.39;100235.91;5005329;28;97843;-61
2022/06/09 10:12:10;;;;;;;;;;;;;;;20.75;53.53;100251.38;4996129;28;99633;-61
2022/06/09 10:14:45;;;;;;;;;;;;;;;20.73;53.59;100254.47;4992199;28;101010;-68
2022/06/09 10:17:44;;;;;;;;;;;;;;;20.72;53.73;100249.34;4995873;28;98246;-61
2022/06/09 10:20:20;;;;;;;;;;;;;;;20.72;53.83;100249.34;4997143;28;99387;-62
2022/06/09 10:23:18;;;;;;;;;;;;;;;20.71;54.02;100262.25;4997303;28;97770;-61
2022/06/09 10:26:17;;;;;;;;;;;;;;;20.72;54.24;100260.31;4993827;28;98121;-69
2022/06/09 10:28:58;;;;;;;;;;;;;;;20.76;54.24;100264.75;4996911;28;97575;-70
2022/06/09 10:31:38;;;;;;;;;;;;;;;20.82;54.29;100257.91;4979626;28;97569;-61
2022/06/09 10:34:12;;;;;;;;;;;;;;;20.95;54.40;100271.63;4993792;28;98711;-69
2022/06/09 10:36:41;;;;;;;;;;;;;;;21.07;54.36;100264.22;4991531;28;127161;-68
2022/06/09 10:39:13;;;;;;;;;;;;;;;21.15;54.38;100267.97;4992897;28;97596;-68
2022/06/09 10:41:42;;;;;;;;;;;;;;;21.23;54.49;100271.75;4988664;28;99113;-68
2022/06/09 10:44:16;;;;;;;;;;;;;;;21.24;54.45;100273.34;4974487;28;98566;-61
2022/06/09 10:55:37;;;;;;;;;;;;;;;21.31;54.83;100279.84;4990642;28;97609;-68
2022/06/09 10:58:23;;;;;;;;;;;;;;;21.39;54.78;100280.88;5007401;28;114933;-62
2022/06/09 11:00:52;;;;;;;;;;;;;;;21.49;54.55;100283.16;4990826;28;114283;-69
2022/06/09 11:03:23;;;;;;;;;;;;;;;21.63;54.44;100279.25;4993873;28;97509;-68
2022/06/09 11:06:19;;;;;;;;;;;;;;;21.74;54.33;100289.41;4975028;28;97766;-68
2022/06/09 11:09:10;;;;;;;;;;;;;;;21.90;54.19;100283.97;4977638;28;97641;-69
2022/06/09 11:11:50;;;;;;;;;;;;;;;22.04;54.08;100284.38;4993393;28;97590;-69
2022/06/09 11:14:35;;;;;;;;;;;;;;;22.17;54.02;100284.38;4995721;28;98676;-62
2022/06/09 11:17:39;;;;;;;;;;;;;;;22.14;54.12;100290.56;5007856;28;98931;-69
2022/06/09 11:20:28;;;;;;;;;;;;;;;22.22;53.94;100303.34;4993381;28;97671;-68
2022/06/09 11:23:10;;;;;;;;;;;;;;;22.30;53.73;100300.44;4993674;28;97591;-68
2022/06/09 11:25:42;;;;;;;;;;;;;;;22.38;53.59;100295.16;4974010;28;123842;-70
2022/06/09 11:28:29;;;;;;;;;;;;;;;22.44;53.53;100294.53;4998041;28;99027;-61
2022/06/09 11:31:16;;;;;;;;;;;;;;;22.58;53.27;100296.06;4990731;28;118966;-66
2022/06/09 11:33:45;;;;;;;;;;;;;;;22.68;53.03;100296.34;4995664;28;97763;-61
2022/06/09 11:36:28;;;;;;;;;;;;;;;22.78;52.34;100297.75;4992328;28;98114;-62
2022/06/09 11:39:12;;;;;;;;;;;;;;;22.90;52.28;100299.63;4974774;28;115291;-62
2022/06/09 11:41:59;;;;;;;;;;;;;;;22.85;52.49;100297.94;4992882;28;97624;-61
2022/06/09 11:44:37;;;;;;;;;;;;;;;22.74;52.42;100294.91;4980501;28;117335;-63
2022/06/09 11:47:05;;;;;;;;;;;;;;;22.65;52.48;100310.78;4974951;28;99139;-61
2022/06/09 11:49:39;;;;;;;;;;;;;;;22.62;52.48;100306.00;4990158;28;117241;-67
2022/06/09 11:52:07;;;;;;;;;;;;;;;22.60;52.58;100311.06;4993198;28;98076;-70
2022/06/09 11:54:49;;;;;;;;;;;;;;;22.55;52.94;100308.53;4990889;28;103155;-61
2022/06/09 11:57:31;;;;;;;;;;;;;;;22.59;53.00;100314.94;4997683;28;98528;-61
2022/06/09 12:00:03;;;;;;;;;;;;;;;22.56;52.80;100312.91;4998888;28;98647;-62
2022/06/09 12:02:51;;;;;;;;;;;;;;;22.51;52.85;100316.69;5002408;28;98232;-61
2022/06/09 12:05:28;;;;;;;;;;;;;;;22.44;52.93;100322.00;4995891;28;97763;-64
2022/06/09 12:08:02;;;;;;;;;;;;;;;22.41;52.98;100319.16;4998567;28;101178;-61
2022/06/09 12:10:55;;;;;;;;;;;;;;;22.34;52.82;100316.22;4998973;28;122675;-61
2022/06/09 12:13:23;;;;;;;;;;;;;;;22.28;53.00;100319.22;5013769;27;97598;-68
2022/06/09 12:15:59;;;;;;;;;;;;;;;22.26;53.09;100323.44;4997572;28;97494;-61
2022/06/09 12:18:31;;;;;;;;;;;;;;;22.21;52.92;100326.44;4999733;28;98838;-61
2022/06/09 12:21:08;;;;;;;;;;;;;;;22.13;53.09;100330.09;4997239;28;98648;-61
2022/06/09 12:23:59;;;;;;;;;;;;;;;22.04;53.08;100327.47;4999662;28;97879;-61
2022/06/09 12:26:28;;;;;;;;;;;;;;;21.97;53.27;100330.84;4999211;28;97630;-68
2022/06/09 12:28:56;;;;;;;;;;;;;;;21.94;53.34;100328.78;4998929;28;98207;-61
2022/06/09 12:31:31;;;;;;;;;;;;;;;21.90;53.36;100335.31;4991790;28;98537;-61
2022/06/09 12:34:09;;;;;;;;;;;;;;;21.85;53.52;100336.34;4988992;28;112205;-61
2022/06/09 12:36:47;;;;;;;;;;;;;;;21.84;53.43;100333.94;4997720;28;97776;-67
2022/06/09 12:39:26;;;;;;;;;;;;;;;21.87;53.47;100333.25;5002611;28;99277;-61
2022/06/09 12:41:57;;;;;;;;;;;;;;;21.91;53.42;100334.97;4999104;28;98300;-68
2022/06/09 12:44:23;;;;;;;;;;;;;;;21.97;53.22;100350.03;4998264;28;97868;-61
2022/06/09 12:46:57;;;;;;;;;;;;;;;22.01;53.22;100341.91;4999999;28;97681;-68
2022/06/09 12:49:25;;;;;;;;;;;;;;;22.04;53.07;100347.50;5000856;27;98727;-61
2022/06/09 12:51:52;;;;;;;;;;;;;;;22.10;52.94;100339.03;4999148;28;99504;-68
2022/06/09 12:54:26;;;;;;;;;;;;;;;22.22;52.67;100348.03;4998427;28;98024;-69
2022/06/09 12:56:57;;;;;;;;;;;;;;;22.32;52.69;100349.47;4996547;28;105969;-62
2022/06/09 12:59:34;;;;;;;;;;;;;;;22.40;52.57;100355.97;5000240;28;98579;-67
2022/06/09 13:02:00;;;;;;;;;;;;;;;22.45;52.38;100355.75;4993992;28;112647;-68
2022/06/09 13:04:27;;;;;;;;;;;;;;;22.53;52.35;100352.84;5004561;28;98629;-67
2022/06/09 13:06:53;;;;;;;;;;;;;;;22.68;52.06;100356.00;4998279;28;116309;-61
2022/06/09 13:09:31;;;;;;;;;;;;;;;22.73;52.12;100344.75;4997939;28;98712;-61
2022/06/09 13:14:48;;;;;;;;;;;;;;;22.90;51.68;100352.63;4996244;28;97409;-68
2022/06/09 13:17:22;;;;;;;;;;;;;;;22.98;51.62;100357.19;4978426;28;97441;-61
2022/06/09 13:20:13;;;;;;;;;;;;;;;23.04;51.56;100360.50;4993095;28;98779;-61
2022/06/09 13:22:39;;;;;;;;;;;;;;;23.11;51.08;100357.94;4992340;28;118548;-68